Time;durP1;ratioP1;P1;durP2;ratioP2;P2;SDS_P1;SDS_P2;PMS_P1;PMS_P2;Temp;Humidity;BMP_temperature;BMP_pressure;BME280_temperature;BME280_humidity;BME280_pressure;Samples;Min_cycle;Max_cycle;Signal;HPM_P1;HPM_P2
2021/12/14 00:01:35;;;;;;;17.50;10.40;;;8.50;99.90;;;;;;5075859;28;20058;-47
2021/12/14 00:04:19;;;;;;;19.75;10.68;;;8.50;99.90;;;;;;5090836;28;20024;-47
2021/12/14 00:06:47;;;;;;;21.10;11.18;;;8.40;99.90;;;;;;5090854;28;20020;-48
2021/12/14 00:09:24;;;;;;;17.70;11.35;;;8.40;99.90;;;;;;5090169;28;20020;-48
2021/12/14 00:12:26;;;;;;;18.00;10.63;;;8.40;99.90;;;;;;5090805;28;20123;-48
2021/12/14 00:17:17;;;;;;;21.40;11.20;;;8.50;99.90;;;;;;5090498;28;20078;-49
2021/12/14 00:19:43;;;;;;;18.25;12.18;;;8.50;99.90;;;;;;5090575;28;20478;-47
2021/12/14 00:22:32;;;;;;;16.83;10.10;;;8.50;99.90;;;;;;5088991;28;20081;-50
2021/12/14 00:24:58;;;;;;;17.30;10.55;;;8.50;99.90;;;;;;5090452;28;20016;-49
2021/12/14 00:27:25;;;;;;;16.45;10.35;;;8.50;99.90;;;;;;5089200;28;20035;-50
2021/12/14 00:29:54;;;;;;;17.40;10.23;;;8.50;99.90;;;;;;5074864;28;20051;-47
2021/12/14 00:32:24;;;;;;;17.38;10.30;;;8.50;99.90;;;;;;5090550;28;20097;-48
2021/12/14 00:34:52;;;;;;;21.33;10.60;;;8.50;99.90;;;;;;5090246;28;20024;-50
2021/12/14 00:37:31;;;;;;;18.00;10.95;;;8.50;99.90;;;;;;5105387;28;20028;-51
2021/12/14 00:40:00;;;;;;;16.92;10.43;;;8.50;99.90;;;;;;5090148;28;20032;-51
2021/12/14 00:42:26;;;;;;;15.93;9.40;;;8.50;99.90;;;;;;5090374;28;20131;-48
2021/12/14 00:44:52;;;;;;;14.68;9.88;;;8.50;99.90;;;;;;5089852;28;20413;-48
2021/12/14 00:47:18;;;;;;;18.02;10.15;;;8.50;99.90;;;;;;5089434;28;20096;-47
2021/12/14 00:49:44;;;;;;;18.60;10.25;;;8.50;99.90;;;;;;5089909;28;20445;-49
2021/12/14 00:52:11;;;;;;;18.13;10.88;;;8.40;99.90;;;;;;5089719;28;20111;-48
2021/12/14 00:54:37;;;;;;;22.13;11.45;;;8.40;99.90;;;;;;5089909;28;20027;-50
2021/12/14 00:57:05;;;;;;;19.13;10.48;;;8.40;99.90;;;;;;5089783;28;20035;-48
2021/12/14 00:59:31;;;;;;;18.75;10.80;;;8.40;99.90;;;;;;5079512;28;20111;-50
2021/12/14 01:02:15;;;;;;;20.38;11.07;;;8.40;99.90;;;;;;5087183;28;20024;-48
2021/12/14 01:04:46;;;;;;;16.88;9.85;;;8.40;99.90;;;;;;5090025;28;20020;-48
2021/12/14 01:07:13;;;;;;;;;;;8.40;99.90;;;;;;5089719;28;20054;-48
2021/12/14 01:09:44;;;;;;;20.35;10.23;;;8.40;99.90;;;;;;5089640;28;19904;-50
2021/12/14 01:12:19;;;;;;;20.15;10.75;;;8.30;99.90;;;;;;5089442;28;20024;-48
2021/12/14 01:15:00;;;;;;;19.42;10.07;;;8.30;99.90;;;;;;5103852;28;20123;-47
2021/12/14 01:17:38;;;;;;;17.02;11.40;;;8.30;99.90;;;;;;5088870;28;20024;-51
2021/12/14 01:20:04;;;;;;;17.25;10.10;;;8.30;99.90;;;;;;5089402;28;20218;-48
2021/12/14 01:25:07;;;;;;;17.58;10.45;;;8.30;99.90;;;;;;5089391;28;20530;-50
2021/12/14 01:28:04;;;;;;;16.73;10.07;;;8.30;99.90;;;;;;5087429;28;20024;-47
2021/12/14 01:31:19;;;;;;;18.33;10.80;;;8.30;99.90;;;;;;5069031;28;20025;-47
2021/12/14 01:33:42;;;;;;;19.67;11.00;;;8.30;99.90;;;;;;5068446;28;20041;-48
2021/12/14 01:36:23;;;;;;;15.77;10.35;;;8.30;99.90;;;;;;5067731;28;20024;-48
2021/12/14 01:39:09;;;;;;;16.33;9.50;;;8.30;99.90;;;;;;5068208;28;20025;-47
2021/12/14 01:41:36;;;;;;;14.40;9.10;;;8.30;99.90;;;;;;5069017;28;20032;-48
2021/12/14 01:44:03;;;;;;;15.10;9.20;;;8.30;99.90;;;;;;5068818;28;20371;-47
2021/12/14 01:46:36;;;;;;;14.18;8.98;;;8.40;99.90;;;;;;5067487;28;20021;-48
2021/12/14 01:49:07;;;;;;;15.88;10.00;;;8.40;99.90;;;;;;5068216;28;20017;-47
2021/12/14 01:51:33;;;;;;;;;;;8.30;99.90;;;;;;5069163;28;20168;-48
2021/12/14 01:53:59;;;;;;;14.77;8.60;;;8.40;99.90;;;;;;5068715;28;20310;-48
2021/12/14 01:56:28;;;;;;;16.33;9.48;;;8.40;99.90;;;;;;5068616;28;20024;-47
2021/12/14 01:59:00;;;;;;;16.83;9.30;;;8.40;99.90;;;;;;5075956;28;20020;-50
2021/12/14 02:01:42;;;;;;;16.75;9.88;;;8.40;99.90;;;;;;5081849;28;20032;-47
2021/12/14 02:04:13;;;;;;;14.73;8.63;;;8.30;99.90;;;;;;5088297;28;20047;-47
2021/12/14 02:06:39;;;;;;;;;;;8.30;99.90;;;;;;5087910;28;20024;-47
2021/12/14 02:09:11;;;;;;;12.73;8.10;;;8.30;99.90;;;;;;5086740;28;19908;-49
2021/12/14 02:11:41;;;;;;;13.60;8.95;;;8.30;99.90;;;;;;5088707;28;20036;-47
2021/12/14 02:14:07;;;;;;;17.38;8.90;;;8.30;99.90;;;;;;5088573;28;20052;-47
2021/12/14 02:16:34;;;;;;;15.73;10.18;;;8.30;99.90;;;;;;5088900;28;20475;-49
2021/12/14 02:19:20;;;;;;;14.27;9.10;;;8.30;99.90;;;;;;5088106;28;20031;-48
2021/12/14 02:21:48;;;;;;;13.43;8.45;;;8.30;99.90;;;;;;5088477;28;20025;-48
2021/12/14 02:24:19;;;;;;;14.85;9.38;;;8.30;99.90;;;;;;5088429;28;20024;-47
2021/12/14 02:26:45;;;;;;;;;;;8.30;99.90;;;;;;5089440;28;20343;-49
2021/12/14 02:29:27;;;;;;;15.93;8.68;;;8.30;99.90;;;;;;5080976;28;20005;-49
2021/12/14 02:31:59;;;;;;;14.13;9.65;;;8.30;99.90;;;;;;5085391;28;20067;-48
2021/12/14 02:34:24;;;;;;;12.63;8.35;;;8.30;99.90;;;;;;5088478;28;20028;-48
2021/12/14 02:36:51;;;;;;;15.05;8.90;;;8.30;99.90;;;;;;5087357;28;20374;-47
2021/12/14 02:40:13;;;;;;;14.55;9.05;;;8.30;99.90;;;;;;5087921;28;20040;-48
2021/12/14 02:42:23;;;;;;;17.30;9.77;;;8.30;99.90;;;;;;5084999;28;20032;-48
2021/12/14 02:44:51;;;;;;;15.35;9.52;;;8.30;99.90;;;;;;5086942;28;20032;-48
2021/12/14 02:47:18;;;;;;;14.90;8.60;;;8.30;99.90;;;;;;5087717;28;20028;-47
2021/12/14 02:49:44;;;;;;;15.23;9.18;;;8.30;99.90;;;;;;5088633;28;20115;-48
2021/12/14 02:52:20;;;;;;;13.95;9.18;;;8.20;99.90;;;;;;5088609;28;20107;-48
2021/12/14 02:54:50;;;;;;;15.43;9.82;;;8.20;99.90;;;;;;5088367;28;20440;-47
2021/12/14 02:57:23;;;;;;;16.40;10.70;;;8.30;99.90;;;;;;5088051;28;20028;-47
2021/12/14 02:59:51;;;;;;;17.77;11.20;;;8.30;99.90;;;;;;5076946;28;20119;-47
2021/12/14 03:02:21;;;;;;;16.48;10.55;;;8.20;99.90;;;;;;5048010;28;20142;-48
2021/12/14 03:04:54;;;;;;;16.83;10.40;;;8.20;99.90;;;;;;5048034;28;20017;-47
2021/12/14 03:07:24;;;;;;;16.77;11.38;;;8.20;99.90;;;;;;5047738;28;20095;-48
2021/12/14 03:12:40;;;;;;;18.52;11.18;;;8.10;99.90;;;;;;5048097;28;20036;-47
2021/12/14 03:15:23;;;;;;;15.70;10.88;;;8.10;99.90;;;;;;5047696;28;20445;-47
2021/12/14 03:17:54;;;;;;;17.80;11.77;;;8.10;99.90;;;;;;5050054;28;20394;-47
2021/12/14 03:20:32;;;;;;;20.05;12.50;;;8.10;99.90;;;;;;5050121;28;20063;-48
2021/12/14 03:23:21;;;;;;;16.50;11.45;;;8.10;99.90;;;;;;5051367;28;20021;-47
2021/12/14 03:25:52;;;;;;;17.73;11.50;;;8.10;99.90;;;;;;5051403;28;20040;-47
2021/12/14 03:28:19;;;;;;;22.73;12.40;;;8.10;99.90;;;;;;5060073;28;20030;-48
2021/12/14 03:30:47;;;;;;;20.90;13.13;;;8.10;99.90;;;;;;5083025;28;20021;-48
2021/12/14 03:33:23;;;;;;;18.08;11.93;;;8.10;99.90;;;;;;5091453;28;20048;-48
2021/12/14 03:35:50;;;;;;;21.33;11.68;;;8.10;99.90;;;;;;5091496;28;20106;-48
2021/12/14 03:38:21;;;;;;;21.48;12.20;;;8.10;99.90;;;;;;5090553;28;20031;-48
2021/12/14 03:41:14;;;;;;;18.30;12.00;;;8.20;99.90;;;;;;5091164;28;20055;-47
2021/12/14 03:43:45;;;;;;;20.45;12.70;;;8.20;99.90;;;;;;5091310;28;20074;-48
2021/12/14 03:46:11;;;;;;;20.13;13.05;;;8.20;99.90;;;;;;5091697;28;20059;-48
2021/12/14 03:48:39;;;;;;;18.67;12.30;;;8.20;99.90;;;;;;5091424;28;20066;-48
2021/12/14 03:51:05;;;;;;;19.52;12.30;;;8.20;99.90;;;;;;5089997;28;20500;-48
2021/12/14 03:53:31;;;;;;;20.60;13.10;;;8.20;99.90;;;;;;5071022;28;20052;-48
2021/12/14 03:56:00;;;;;;;18.83;11.80;;;8.10;99.90;;;;;;5071178;28;20028;-48
2021/12/14 03:58:35;;;;;;;21.48;13.25;;;8.10;99.90;;;;;;5074993;28;20027;-48
2021/12/14 04:01:08;;;;;;;21.50;12.90;;;8.20;99.90;;;;;;5088249;28;20044;-48
2021/12/14 04:03:34;;;;;;;22.83;13.05;;;8.20;99.90;;;;;;5070742;28;20472;-48
2021/12/14 04:06:02;;;;;;;19.40;12.93;;;8.10;99.90;;;;;;5070705;28;20043;-48
2021/12/14 04:08:28;;;;;;;20.17;13.50;;;8.10;99.90;;;;;;5069930;28;20030;-49
2021/12/14 04:10:57;;;;;;;20.77;12.77;;;8.20;99.90;;;;;;5070829;28;20032;-48
2021/12/14 04:13:26;;;;;;;19.50;12.75;;;8.20;99.90;;;;;;5070161;28;20034;-48
2021/12/14 04:15:53;;;;;;;20.40;11.73;;;8.20;99.90;;;;;;5070549;28;20056;-51
2021/12/14 04:18:19;;;;;;;19.95;12.63;;;8.20;99.90;;;;;;5069552;28;20021;-48
2021/12/14 04:20:47;;;;;;;19.92;12.40;;;8.20;99.90;;;;;;5070497;28;20028;-49
2021/12/14 04:23:19;;;;;;;19.00;12.63;;;8.20;99.90;;;;;;5070370;28;20024;-48
2021/12/14 04:25:47;;;;;;;19.55;12.82;;;8.20;99.90;;;;;;5070362;28;20024;-50
2021/12/14 04:28:16;;;;;;;21.02;13.25;;;8.20;99.90;;;;;;5071407;28;20023;-50
2021/12/14 04:30:42;;;;;;;17.10;11.15;;;8.10;99.90;;;;;;5081789;28;20095;-49
2021/12/14 04:33:12;;;;;;;17.23;11.75;;;8.20;99.90;;;;;;5090520;28;20412;-48
2021/12/14 04:35:40;;;;;;;20.85;12.43;;;8.20;99.90;;;;;;5090425;28;20024;-49
2021/12/14 04:38:15;;;;;;;16.50;10.77;;;8.20;99.90;;;;;;5089871;28;20055;-48
2021/12/14 04:51:59;;;;;;;15.70;9.75;;;8.20;99.90;;;;;;5090198;28;20069;-48
2021/12/14 04:54:36;;;;;;;13.93;9.18;;;8.20;99.90;;;;;;5089861;28;20085;-49
2021/12/14 04:57:02;;;;;;;15.07;10.30;;;8.30;99.90;;;;;;5089931;28;20055;-46
2021/12/14 04:59:30;;;;;;;14.82;10.18;;;8.30;99.90;;;;;;5087028;28;20059;-51
2021/12/14 05:02:10;;;;;;;13.23;8.95;;;8.30;99.90;;;;;;5071081;28;20029;-49
2021/12/14 05:04:36;;;;;;;13.50;9.30;;;8.30;99.90;;;;;;5069875;28;20028;-49
2021/12/14 05:07:25;;;;;;;13.25;9.57;;;8.30;99.90;;;;;;5070001;28;20028;-49
2021/12/14 05:09:48;;;;;;;16.60;10.18;;;8.30;99.90;;;;;;5069587;28;20057;-49
2021/12/14 05:12:17;;;;;;;12.27;8.50;;;8.30;99.90;;;;;;5069498;28;20044;-48
2021/12/14 05:14:46;;;;;;;14.98;9.98;;;8.40;99.90;;;;;;5069264;28;20085;-48
2021/12/14 05:17:16;;;;;;;13.57;9.10;;;8.40;99.90;;;;;;5069152;28;20017;-49
2021/12/14 05:19:44;;;;;;;13.15;8.32;;;8.40;99.90;;;;;;5069619;28;20055;-50
2021/12/14 05:22:16;;;;;;;13.40;8.55;;;8.40;99.90;;;;;;5069556;28;20119;-47
2021/12/14 05:24:47;;;;;;;13.00;8.65;;;8.40;99.90;;;;;;5067980;28;20494;-47
2021/12/14 05:27:25;;;;;;;11.68;8.27;;;8.40;99.90;;;;;;5069043;28;20390;-48
2021/12/14 05:29:51;;;;;;;11.50;7.97;;;8.40;99.90;;;;;;5076920;28;20474;-47
2021/12/14 05:32:18;;;;;;;12.02;7.93;;;8.40;99.90;;;;;;5069554;28;20513;-48
2021/12/14 05:34:49;;;;;;;14.07;8.68;;;8.40;99.90;;;;;;5067932;28;20425;-49
2021/12/14 05:37:23;;;;;;;10.48;7.32;;;8.40;99.90;;;;;;5068743;28;20102;-47
2021/12/14 05:39:58;;;;;;;13.70;8.20;;;8.40;99.90;;;;;;5068339;28;20098;-50
2021/12/14 05:45:13;;;;;;;11.93;7.55;;;8.40;99.90;;;;;;5069657;28;20398;-48
2021/12/14 05:47:45;;;;;;;16.15;9.15;;;8.30;99.90;;;;;;5068614;28;20024;-49
2021/12/14 05:50:23;;;;;;;15.82;8.65;;;8.30;99.90;;;;;;5069043;28;20494;-48
2021/12/14 05:52:49;;;;;;;14.00;8.95;;;8.30;99.90;;;;;;5068932;28;20040;-47
2021/12/14 05:55:19;;;;;;;13.35;7.78;;;8.30;99.90;;;;;;5067671;28;20032;-49
2021/12/14 05:57:45;;;;;;;11.93;8.68;;;8.20;99.90;;;;;;5068329;28;20032;-49
2021/12/14 06:00:14;;;;;;;11.45;7.95;;;8.30;99.90;;;;;;5079258;28;20119;-49
2021/12/14 06:02:40;;;;;;;11.45;7.55;;;8.20;99.90;;;;;;5088838;28;20020;-49
2021/12/14 06:05:11;;;;;;;12.13;7.63;;;8.20;99.90;;;;;;5104778;28;20123;-51
2021/12/14 06:07:37;;;;;;;13.18;7.75;;;8.20;99.90;;;;;;5088486;28;20016;-49
2021/12/14 06:10:04;;;;;;;10.48;7.20;;;8.20;99.90;;;;;;5089010;28;20147;-49
2021/12/14 06:12:32;;;;;;;11.77;7.40;;;8.20;99.90;;;;;;5088993;28;20031;-49
2021/12/14 06:15:00;;;;;;;11.43;7.35;;;8.20;99.90;;;;;;5104141;28;20107;-48
2021/12/14 06:17:35;;;;;;;11.80;7.50;;;8.20;99.90;;;;;;5088544;28;20115;-51
2021/12/14 06:20:14;;;;;;;12.32;7.90;;;8.20;99.90;;;;;;5088867;28;20304;-50
2021/12/14 06:22:41;;;;;;;9.85;7.43;;;8.20;99.90;;;;;;5087584;28;20392;-48
2021/12/14 06:25:11;;;;;;;10.00;7.57;;;8.20;99.90;;;;;;5088876;28;20031;-49
2021/12/14 06:27:37;;;;;;;10.15;7.03;;;8.20;99.90;;;;;;5088690;28;20042;-50
2021/12/14 06:30:08;;;;;;;11.25;7.10;;;8.20;99.90;;;;;;5078016;28;20017;-50
2021/12/14 06:32:39;;;;;;;11.07;7.60;;;8.20;99.90;;;;;;5083756;28;20034;-49
2021/12/14 06:35:07;;;;;;;;;;;8.20;99.90;;;;;;5068851;28;20042;-51
2021/12/14 06:40:29;;;;;;;10.60;7.00;;;8.20;99.90;;;;;;5059696;28;20556;-47
2021/12/14 06:43:02;;;;;;;10.25;7.05;;;8.20;99.90;;;;;;5073749;28;20024;-48
2021/12/14 06:45:35;;;;;;;11.15;7.07;;;8.20;99.90;;;;;;5069753;28;20401;-48
2021/12/14 06:48:22;;;;;;;9.02;6.53;;;8.20;99.90;;;;;;5065271;28;20025;-48
2021/12/14 06:51:22;;;;;;;9.23;7.07;;;8.20;99.90;;;;;;5069457;28;20070;-47
2021/12/14 06:53:57;;;;;;;10.57;7.55;;;8.20;99.90;;;;;;5057952;28;20170;-48
2021/12/14 06:56:26;;;;;;;10.35;6.50;;;8.20;99.90;;;;;;5071831;28;20032;-48
2021/12/14 06:59:11;;;;;;;11.40;7.82;;;8.20;99.90;;;;;;5079103;28;20023;-48
2021/12/14 07:01:46;;;;;;;9.68;7.05;;;8.20;99.90;;;;;;5071402;28;20031;-47
2021/12/14 07:04:15;;;;;;;12.80;8.63;;;8.20;99.90;;;;;;5075042;28;20021;-48
2021/12/14 07:06:48;;;;;;;11.45;7.70;;;8.20;99.90;;;;;;5072857;28;20211;-51
2021/12/14 07:09:19;;;;;;;10.20;7.57;;;8.20;99.90;;;;;;5070448;28;20113;-48
2021/12/14 07:11:56;;;;;;;11.50;8.40;;;8.20;99.90;;;;;;5072640;28;20130;-48
2021/12/14 07:14:31;;;;;;;12.00;8.00;;;8.20;99.90;;;;;;5072394;28;20494;-47
2021/12/14 07:17:15;;;;;;;9.40;7.18;;;8.20;99.90;;;;;;5071257;28;20150;-47
2021/12/14 07:19:43;;;;;;;11.98;8.55;;;8.20;99.90;;;;;;5071751;28;20024;-49
2021/12/14 07:22:33;;;;;;;12.13;8.40;;;8.20;99.90;;;;;;5070128;28;20120;-47
2021/12/14 07:25:08;;;;;;;10.38;7.65;;;8.20;99.90;;;;;;5058021;28;20036;-48
2021/12/14 07:27:44;;;;;;;11.68;7.85;;;8.20;99.90;;;;;;5070070;28;20024;-49
2021/12/14 07:30:24;;;;;;;12.02;8.25;;;8.20;99.90;;;;;;5104478;27;20107;-51
2021/12/14 07:32:55;;;;;;;10.95;8.30;;;8.20;99.90;;;;;;5070921;28;20056;-49
2021/12/14 07:35:27;;;;;;;11.20;7.57;;;8.20;99.90;;;;;;5071328;28;20039;-48
2021/12/14 07:37:56;;;;;;;10.80;8.35;;;8.20;99.90;;;;;;5070380;28;20028;-48
2021/12/14 07:40:24;;;;;;;11.98;8.48;;;8.20;99.90;;;;;;5070907;28;20028;-47
2021/12/14 07:43:14;;;;;;;12.20;8.85;;;8.20;99.90;;;;;;5070743;28;20016;-47
2021/12/14 07:45:42;;;;;;;12.38;8.63;;;8.20;99.90;;;;;;5070961;28;20394;-47
2021/12/14 07:48:08;;;;;;;11.18;8.20;;;8.20;99.90;;;;;;5070213;28;20036;-49
2021/12/14 07:50:44;;;;;;;11.40;8.25;;;8.20;99.90;;;;;;5070744;28;20383;-50
2021/12/14 07:53:09;;;;;;;12.90;8.30;;;8.20;99.90;;;;;;5070946;28;20484;-47
2021/12/14 07:55:42;;;;;;;13.07;8.77;;;8.20;99.90;;;;;;5070605;28;20032;-48
2021/12/14 07:58:08;;;;;;;12.43;8.65;;;8.20;99.90;;;;;;5072424;28;20028;-48
2021/12/14 08:00:40;;;;;;;13.57;8.43;;;8.20;99.90;;;;;;5077077;28;20032;-49
2021/12/14 08:03:06;;;;;;;12.68;8.55;;;8.20;99.90;;;;;;5063048;28;20105;-49
2021/12/14 08:05:42;;;;;;;12.95;8.73;;;8.20;99.90;;;;;;5068182;28;20020;-52
2021/12/14 08:08:13;;;;;;;12.63;8.60;;;8.20;99.90;;;;;;5067199;28;20360;-48
2021/12/14 08:10:45;;;;;;;13.52;8.82;;;8.20;99.90;;;;;;5077985;28;20016;-48
2021/12/14 08:13:21;;;;;;;13.85;9.07;;;8.20;99.90;;;;;;5071222;28;20020;-48
2021/12/14 08:15:53;;;;;;;15.13;9.18;;;8.20;99.90;;;;;;5070690;28;20085;-48
2021/12/14 08:18:20;;;;;;;12.02;8.43;;;8.20;99.90;;;;;;5080770;28;20020;-53
2021/12/14 08:21:01;;;;;;;12.30;8.25;;;8.20;99.90;;;;;;5068645;28;20505;-54
2021/12/14 08:23:30;;;;;;;13.35;8.25;;;8.20;99.90;;;;;;5070098;28;20059;-54
2021/12/14 08:25:58;;;;;;;15.68;8.93;;;8.20;99.90;;;;;;5068627;28;20024;-54
2021/12/14 08:28:24;;;;;;;11.95;8.45;;;8.30;99.90;;;;;;5085822;28;20024;-54
2021/12/14 08:31:04;;;;;;;12.32;8.18;;;8.30;99.90;;;;;;5080192;28;20319;-53
2021/12/14 08:33:32;;;;;;;13.05;8.43;;;8.30;99.90;;;;;;5067983;28;20025;-52
2021/12/14 08:36:02;;;;;;;13.13;8.98;;;8.30;99.90;;;;;;5068509;28;20029;-52
2021/12/14 08:38:31;;;;;;;13.32;8.95;;;8.30;99.90;;;;;;5068449;28;20365;-53
2021/12/14 08:41:08;;;;;;;17.20;9.18;;;8.40;99.90;;;;;;5067643;28;20040;-47
2021/12/14 08:43:35;;;;;;;13.98;8.52;;;8.40;99.90;;;;;;5068806;28;20032;-47
2021/12/14 08:46:09;;;;;;;14.70;8.75;;;8.40;99.90;;;;;;5069045;28;20021;-49
2021/12/14 08:48:48;;;;;;;11.82;8.15;;;8.40;99.90;;;;;;5068817;28;20074;-51
2021/12/14 08:51:25;;;;;;;14.65;9.40;;;8.50;99.90;;;;;;5069304;28;20483;-48
2021/12/14 08:54:01;;;;;;;13.88;9.15;;;8.50;99.90;;;;;;5069929;28;20439;-48
2021/12/14 08:56:31;;;;;;;13.30;8.40;;;8.50;99.90;;;;;;5069588;28;20187;-51
2021/12/14 08:58:58;;;;;;;11.30;8.35;;;8.50;99.90;;;;;;5075385;28;20498;-50
2021/12/14 09:01:28;;;;;;;14.73;9.68;;;8.60;99.90;;;;;;5073958;28;20028;-51
2021/12/14 09:04:17;;;;;;;14.63;9.43;;;8.60;99.90;;;;;;5072649;28;20059;-48
2021/12/14 09:06:45;;;;;;;17.33;8.88;;;8.70;99.90;;;;;;5069588;28;20445;-50
2021/12/14 09:09:15;;;;;;;15.00;9.25;;;8.70;99.90;;;;;;5072796;28;20025;-49
2021/12/14 09:11:45;;;;;;;13.73;8.73;;;8.70;99.90;;;;;;5077938;28;20489;-49
2021/12/14 09:14:14;;;;;;;13.50;9.68;;;8.60;99.90;;;;;;5078105;28;20512;-48
2021/12/14 09:16:42;;;;;;;14.93;8.40;;;8.70;99.90;;;;;;5073986;28;20525;-49
2021/12/14 09:19:14;;;;;;;16.67;9.45;;;8.60;99.90;;;;;;5067553;28;20048;-51
2021/12/14 09:21:44;;;;;;;13.65;9.90;;;8.70;99.90;;;;;;5073352;28;20017;-49
2021/12/14 09:24:16;;;;;;;19.73;10.38;;;8.70;99.90;;;;;;5080536;28;20028;-49
2021/12/14 09:26:47;;;;;;;14.55;9.20;;;8.60;99.90;;;;;;5103560;28;20474;-50
2021/12/14 09:29:16;;;;;;;13.40;9.20;;;8.70;99.90;;;;;;5077712;28;20545;-49
2021/12/14 09:31:47;;;;;;;16.33;9.98;;;8.70;99.90;;;;;;5074439;28;20028;-48
2021/12/14 09:34:15;;;;;;;16.95;10.25;;;8.60;99.90;;;;;;5065660;28;20111;-51
2021/12/14 09:36:41;;;;;;;16.90;10.80;;;8.60;99.90;;;;;;5067308;28;20029;-48
2021/12/14 09:39:13;;;;;;;16.25;9.57;;;8.60;99.90;;;;;;5066866;28;20094;-48
2021/12/14 09:41:43;;;;;;;16.15;10.13;;;8.60;99.90;;;;;;5067409;28;20028;-50
2021/12/14 09:44:12;;;;;;;16.50;11.25;;;8.60;99.90;;;;;;5067065;28;20048;-50
2021/12/14 09:46:39;;;;;;;17.48;11.18;;;8.60;99.90;;;;;;5066358;28;20155;-50
2021/12/14 09:49:09;;;;;;;13.18;9.30;;;8.70;99.90;;;;;;5066827;28;20494;-48
2021/12/14 09:51:43;;;;;;;15.30;10.77;;;8.70;99.90;;;;;;5064134;28;20020;-49
2021/12/14 09:54:12;;;;;;;19.15;11.52;;;8.60;99.90;;;;;;5067728;28;20454;-49
2021/12/14 09:56:52;;;;;;;16.90;11.48;;;8.70;99.90;;;;;;5066643;28;20016;-51
2021/12/14 09:59:18;;;;;;;20.05;11.48;;;8.60;99.90;;;;;;5070895;28;20031;-48
2021/12/14 10:01:49;;;;;;;14.50;10.27;;;8.60;99.90;;;;;;5073031;28;20120;-50
2021/12/14 10:04:23;;;;;;;17.67;10.52;;;8.60;99.90;;;;;;5065139;28;20385;-51
2021/12/14 10:06:50;;;;;;;16.42;10.57;;;8.70;99.90;;;;;;5067917;28;20068;-51
2021/12/14 10:09:25;;;;;;;17.52;11.32;;;8.80;99.90;;;;;;5067074;28;20039;-51
2021/12/14 10:12:17;;;;;;;19.67;10.82;;;8.90;99.90;;;;;;5067831;28;20024;-50
2021/12/14 10:14:47;;;;;;;16.88;11.13;;;9.00;99.90;;;;;;5067262;28;20606;-51
2021/12/14 10:17:15;;;;;;;16.92;11.65;;;9.00;99.90;;;;;;5072273;28;20040;-49
2021/12/14 10:19:43;;;;;;;15.90;10.55;;;8.90;99.90;;;;;;5066642;28;20025;-51
2021/12/14 10:22:31;;;;;;;20.15;12.18;;;8.90;99.90;;;;;;5067210;28;20016;-50
2021/12/14 10:24:59;;;;;;;18.98;12.43;;;9.00;99.90;;;;;;5064585;28;20505;-51
2021/12/14 10:27:28;;;;;;;21.73;12.63;;;9.00;99.90;;;;;;5070113;28;20009;-49
2021/12/14 10:29:55;;;;;;;22.50;13.38;;;9.00;99.90;;;;;;5071841;28;20040;-51
2021/12/14 10:32:25;;;;;;;17.52;12.80;;;9.00;99.90;;;;;;5073980;28;20032;-50
2021/12/14 10:34:59;;;;;;;19.20;12.17;;;9.10;99.90;;;;;;5066575;28;20111;-50
2021/12/14 10:37:39;;;;;;;18.92;11.82;;;9.10;99.90;;;;;;5067216;28;20040;-50
2021/12/14 10:43:13;;;;;;;24.02;14.80;;;9.20;99.90;;;;;;5069182;28;20035;-50
2021/12/14 10:45:42;;;;;;;19.02;13.07;;;9.20;99.90;;;;;;5069370;28;20044;-49
2021/12/14 10:48:08;;;;;;;20.33;13.05;;;9.30;99.90;;;;;;5070716;28;20035;-49
2021/12/14 10:50:36;;;;;;;17.67;13.30;;;9.40;99.90;;;;;;5071228;28;20021;-50
2021/12/14 10:53:05;;;;;;;23.08;13.90;;;9.50;99.90;;;;;;5070081;28;20044;-51
2021/12/14 10:55:45;;;;;;;22.27;13.52;;;9.50;99.90;;;;;;5070361;28;20429;-52
2021/12/14 10:58:12;;;;;;;;;;;9.50;99.90;;;;;;5071153;28;20520;-51
2021/12/14 11:01:15;;;;;;;21.88;14.63;;;9.40;99.90;;;;;;5078803;28;19904;-49
2021/12/14 11:03:46;;;;;;;23.13;14.07;;;9.40;99.90;;;;;;5062857;28;20068;-49
2021/12/14 11:06:15;;;;;;;25.17;15.63;;;9.40;99.90;;;;;;5049619;28;20116;-49
2021/12/14 11:08:54;;;;;;;25.00;16.30;;;9.40;99.90;;;;;;5050226;28;20556;-50
2021/12/14 11:11:31;;;;;;;21.33;14.15;;;9.30;99.90;;;;;;5050945;28;20423;-51
2021/12/14 11:14:01;;;;;;;22.63;15.23;;;9.40;99.90;;;;;;5050881;28;20029;-49
2021/12/14 11:19:38;;;;;;;23.85;16.23;;;9.50;99.90;;;;;;5050537;28;20078;-51
2021/12/14 11:22:12;;;;;;;25.00;15.73;;;9.50;99.90;;;;;;5050752;28;20059;-49
2021/12/14 11:24:39;;;;;;;24.45;16.40;;;9.50;99.90;;;;;;5051501;28;20479;-49
2021/12/14 11:27:38;;;;;;;23.30;16.27;;;9.60;99.90;;;;;;5051529;28;20064;-51
2021/12/14 11:30:23;;;;;;;26.13;17.05;;;9.50;99.90;;;;;;5073425;28;20559;-51
2021/12/14 11:33:04;;;;;;;28.20;17.17;;;9.50;99.90;;;;;;5086318;28;20058;-48
2021/12/14 11:35:32;;;;;;;22.08;15.18;;;9.50;99.90;;;;;;5090234;28;20028;-49
2021/12/14 11:38:01;;;;;;;22.73;15.48;;;9.50;99.90;;;;;;5089487;28;20024;-50
2021/12/14 11:40:30;;;;;;;28.38;17.38;;;9.60;99.90;;;;;;5091470;28;20362;-50
2021/12/14 11:43:10;;;;;;;28.25;18.85;;;9.70;99.90;;;;;;5089881;28;20228;-49
2021/12/14 11:45:37;;;;;;;27.50;18.25;;;9.60;99.90;;;;;;5090933;28;20402;-50
2021/12/14 11:48:03;;;;;;;26.25;18.27;;;9.60;99.90;;;;;;5089175;28;20024;-48
2021/12/14 11:50:44;;;;;;;28.60;18.67;;;9.60;99.90;;;;;;5091108;28;20016;-49
2021/12/14 11:53:11;;;;;;;24.88;17.05;;;9.50;99.90;;;;;;5091361;28;20027;-50
2021/12/14 11:55:44;;;;;;;29.45;19.02;;;9.50;99.90;;;;;;5091064;28;20382;-50
2021/12/14 11:58:30;;;;;;;29.80;19.65;;;9.50;99.90;;;;;;5077504;28;20040;-51
2021/12/14 12:01:06;;;;;;;28.27;19.08;;;9.50;99.90;;;;;;5071553;28;20071;-49
2021/12/14 12:03:56;;;;;;;27.55;19.50;;;9.50;99.90;;;;;;5070141;28;20535;-49
2021/12/14 12:09:33;;;;;;;29.02;18.90;;;9.60;99.90;;;;;;5069563;28;19915;-51
2021/12/14 12:12:07;;;;;;;31.40;21.13;;;9.60;99.90;;;;;;5068828;28;20420;-48
2021/12/14 12:14:40;;;;;;;32.05;20.42;;;9.70;99.90;;;;;;5067580;28;20025;-50
2021/12/14 12:17:09;;;;;;;28.30;19.45;;;9.70;99.90;;;;;;5069913;28;20027;-51
2021/12/14 12:19:35;;;;;;;29.65;20.25;;;9.70;99.90;;;;;;5069749;28;20028;-50
2021/12/14 12:22:15;;;;;;;30.05;20.67;;;9.70;99.90;;;;;;5070376;28;20491;-50
2021/12/14 12:24:51;;;;;;;32.40;19.27;;;9.70;99.90;;;;;;5070263;28;20021;-51
2021/12/14 12:27:19;;;;;;;28.40;19.65;;;9.80;99.90;;;;;;5068195;28;20024;-50
2021/12/14 12:29:45;;;;;;;33.05;21.85;;;9.70;99.90;;;;;;5076035;28;20027;-51
2021/12/14 12:32:20;;;;;;;30.15;20.27;;;9.70;99.90;;;;;;5081288;28;20020;-48
2021/12/14 12:34:50;;;;;;;29.50;20.35;;;9.70;99.90;;;;;;5089970;28;20020;-49
2021/12/14 12:37:16;;;;;;;29.88;20.52;;;9.60;99.90;;;;;;5087966;28;20127;-48
2021/12/14 12:39:49;;;;;;;31.67;21.27;;;9.60;99.90;;;;;;5088545;28;20053;-48
2021/12/14 12:42:16;;;;;;;28.98;20.00;;;9.60;99.90;;;;;;5068128;28;20036;-50
2021/12/14 12:44:43;;;;;;;31.98;21.10;;;9.60;99.90;;;;;;5047929;28;20025;-49
2021/12/14 12:47:19;;;;;;;27.00;19.38;;;9.60;99.90;;;;;;5048509;28;20024;-49
2021/12/14 12:49:55;;;;;;;29.77;20.35;;;9.60;99.90;;;;;;5048487;28;20032;-48
2021/12/14 12:52:38;;;;;;;27.95;19.63;;;9.60;99.90;;;;;;5049489;28;20035;-50
2021/12/14 12:55:11;;;;;;;32.30;21.23;;;9.60;99.90;;;;;;5048737;28;20036;-49
2021/12/14 12:58:10;;;;;;;33.30;21.48;;;9.60;99.90;;;;;;5047682;28;20033;-49
2021/12/14 13:00:59;;;;;;;30.63;21.63;;;9.50;99.90;;;;;;5065997;28;20039;-50
2021/12/14 13:03:35;;;;;;;32.25;21.02;;;9.40;99.90;;;;;;5064321;28;20025;-48
2021/12/14 13:06:08;;;;;;;31.77;20.88;;;9.30;99.90;;;;;;5068190;28;20104;-50
2021/12/14 13:08:39;;;;;;;32.63;21.10;;;9.30;99.90;;;;;;5068205;28;20028;-50
2021/12/14 13:11:17;;;;;;;37.35;23.17;;;9.30;99.90;;;;;;5068531;28;20445;-50
2021/12/14 13:13:57;;;;;;;32.47;20.42;;;9.40;99.90;;;;;;5067114;28;20028;-51
2021/12/14 13:16:34;;;;;;;39.22;22.17;;;9.40;99.90;;;;;;5064134;28;20512;-50
2021/12/14 13:19:11;;;;;;;33.80;22.17;;;9.30;99.90;;;;;;5055442;28;20445;-48
2021/12/14 13:21:57;;;;;;;33.60;22.75;;;9.30;99.90;;;;;;5073192;28;20020;-49
2021/12/14 13:24:23;;;;;;;37.47;23.23;;;9.30;99.90;;;;;;5068062;28;20478;-50
2021/12/14 13:27:08;;;;;;;32.97;22.27;;;9.20;99.90;;;;;;5068233;28;20021;-51
2021/12/14 13:29:39;;;;;;;32.67;22.35;;;9.20;99.90;;;;;;5072733;28;20012;-49
2021/12/14 13:32:19;;;;;;;32.55;20.92;;;9.10;99.90;;;;;;5068060;28;20169;-49
2021/12/14 13:35:05;;;;;;;35.50;22.75;;;9.10;99.90;;;;;;5067310;28;20029;-51
2021/12/14 13:37:35;;;;;;;41.15;23.65;;;9.10;99.90;;;;;;5066996;28;20502;-49
2021/12/14 13:40:07;;;;;;;37.15;24.40;;;9.10;99.90;;;;;;5067844;28;20121;-48
2021/12/14 13:42:47;;;;;;;36.38;24.17;;;9.10;99.90;;;;;;5067714;28;20371;-48
2021/12/14 13:45:17;;;;;;;37.10;23.42;;;9.00;99.90;;;;;;5067313;28;20123;-51